Terminal Aerodrome Forecast
Issued by NWS

Home | Current Version | Previous Version | Text Only | Print | Product List | Glossary On
Versions: 1 2 3 4 5 6 7 8 9 10 11 12 13 14 15 16 17 18 19 20 21 22 23 24 25 26 27 28 29 30 31 32 33 34
000
FTUS43 KMKX 020202 AAC
TAFUES
TAF AMD
KUES 020202Z 0202/0224 06011KT 6SM -DZ OVC005
     FM020400 06010KT P6SM -DZ SCT005 OVC015
     FM020500 03008KT P6SM OVC035
     FM020700 02007KT P6SM OVC060
     FM020900 01007KT P6SM SCT090
     FM022300 04006KT P6SM SCT100=

USA.gov is the U.S. government's official web portal to all federal, state and local government web resources and services.